Terminal Aerodrome Forecast
Issued by NWS Dallas/Fort Worth, TX

Home | Current Version | Previous Version | Text Only | Print | Product List | Glossary On
Versions: 1 2 3 4 5 6 7 8 9 10 11 12 13 14 15 16 17 18 19 20 21 22 23 24 25 26 27 28 29 30 31
000
FTUS44 KFWD 221241 AAA
TAFDFW
TAF AMD
KDFW 221241Z 2213/2318 33016KT P6SM SCT018
     FM221900 33017KT P6SM BKN050
     FM230100 33008KT P6SM FEW050
     FM231100 34006KT P6SM BKN015
     FM231600 33010KT P6SM FEW015=

USA.gov is the U.S. government's official web portal to all federal, state and local government web resources and services.